This is the latest recevied weather packets stored in our database for station/object EA1GGY-1. If no packets are shown the sender has not sent any weather packets the latest 10 day(s).
| Time | Temp. | Humidity | Pressure | Rain* | Wind** | Luminosity | Snow |
|---|---|---|---|---|---|---|---|
| 1777998584 | 9.44° C | 68% | 1009.3 hPa | - | - | - | - |
| 1777997983 | 8.89° C | 70% | 1009.4 hPa | - | - | - | - |
| 1777997382 | 8.33° C | 72% | 1009.5 hPa | - | - | - | - |
| 1777996782 | 8.33° C | 73% | 1009.5 hPa | - | - | - | - |
| 1777996181 | 8.33° C | 74% | 1009.6 hPa | - | - | - | - |
| 1777995580 | 8.33° C | 75% | 1009.4 hPa | - | - | - | - |
| 1777994979 | 9.44° C | 72% | 1009.4 hPa | - | - | - | - |
| 1777994379 | 8.89° C | 73% | 1009.1 hPa | - | - | - | - |
| 1777993778 | 10° C | 69% | 1008.9 hPa | - | - | - | - |
| 1777993177 | 10° C | 74% | 1008.9 hPa | - | - | - | - |
| 1777992576 | 10° C | 75% | 1009 hPa | - | - | - | - |
| 1777991976 | 10.56° C | 69% | 1008.8 hPa | - | - | - | - |
| 1777991375 | 10.56° C | 71% | 1008.8 hPa | - | - | - | - |
| 1777990774 | 10° C | 71% | 1008.9 hPa | - | - | - | - |
| 1777989573 | 9.44° C | 76% | 1009 hPa | - | - | - | - |
| 1777988972 | 8.89° C | 79% | 1008.8 hPa | - | - | - | - |
| 1777988371 | 10.56° C | 74% | 1008.5 hPa | - | - | - | - |
| 1777987770 | 11.11° C | 73% | 1008.5 hPa | - | - | - | - |
| 1777987169 | 10.56° C | 74% | 1008.6 hPa | - | - | - | - |
| 1777986567 | 9.44° C | 76% | 1008.7 hPa | - | - | - | - |
| 1777985967 | 10.56° C | 71% | 1008.7 hPa | - | - | - | - |
| 1777985367 | 9.44° C | 75% | 1008.8 hPa | - | - | - | - |
| 1777984765 | 10° C | 74% | 1008.6 hPa | - | - | - | - |
| 1777984164 | 12.22° C | 66% | 1008.5 hPa | - | - | - | - |
| 1777983563 | 11.11° C | 70% | 1008.7 hPa | - | - | - | - |
* Rain since midnight (hover to see other rain measurements)
** Current wind speed in m/s (hover to see current wind gust speed)